sensor_id;sensor_type;location;lat;lon;timestamp;temperature;humidity
53520;DHT22;39397;53.204;5.778;2023-06-22T00:00:58;17.70;99.90
53520;DHT22;39397;53.204;5.778;2023-06-22T00:03:25;17.70;99.90
53520;DHT22;39397;53.204;5.778;2023-06-22T00:05:52;17.60;99.90
53520;DHT22;39397;53.204;5.778;2023-06-22T00:08:19;17.60;99.90
53520;DHT22;39397;53.204;5.778;2023-06-22T00:10:46;17.60;99.90
53520;DHT22;39397;53.204;5.778;2023-06-22T00:13:12;17.50;99.90
53520;DHT22;39397;53.204;5.778;2023-06-22T00:15:39;17.50;99.90
53520;DHT22;39397;53.204;5.778;2023-06-22T00:18:09;17.50;99.90
53520;DHT22;39397;53.204;5.778;2023-06-22T00:20:36;17.40;99.90
53520;DHT22;39397;53.204;5.778;2023-06-22T00:23:06;17.50;99.90
53520;DHT22;39397;53.204;5.778;2023-06-22T00:25:38;17.40;99.90
53520;DHT22;39397;53.204;5.778;2023-06-22T00:28:07;17.30;99.90
53520;DHT22;39397;53.204;5.778;2023-06-22T00:30:33;17.20;99.90
53520;DHT22;39397;53.204;5.778;2023-06-22T00:33:00;17.30;99.90
53520;DHT22;39397;53.204;5.778;2023-06-22T00:35:27;17.20;99.90
53520;DHT22;39397;53.204;5.778;2023-06-22T00:37:58;17.30;99.90
53520;DHT22;39397;53.204;5.778;2023-06-22T00:40:27;17.20;99.90
53520;DHT22;39397;53.204;5.778;2023-06-22T00:42:53;17.30;99.90
53520;DHT22;39397;53.204;5.778;2023-06-22T00:45:18;17.20;99.90
53520;DHT22;39397;53.204;5.778;2023-06-22T00:47:44;17.20;99.90
53520;DHT22;39397;53.204;5.778;2023-06-22T00:50:17;17.20;99.90
53520;DHT22;39397;53.204;5.778;2023-06-22T00:52:44;17.20;99.90
53520;DHT22;39397;53.204;5.778;2023-06-22T00:55:10;17.20;99.90
53520;DHT22;39397;53.204;5.778;2023-06-22T00:57:36;17.20;99.90
53520;DHT22;39397;53.204;5.778;2023-06-22T01:00:03;16.90;99.90
53520;DHT22;39397;53.204;5.778;2023-06-22T01:02:33;17.00;99.90
53520;DHT22;39397;53.204;5.778;2023-06-22T01:04:59;17.00;99.90
53520;DHT22;39397;53.204;5.778;2023-06-22T01:10:25;16.80;99.90
53520;DHT22;39397;53.204;5.778;2023-06-22T01:12:57;16.80;99.90
53520;DHT22;39397;53.204;5.778;2023-06-22T01:15:39;16.70;99.90
53520;DHT22;39397;53.204;5.778;2023-06-22T01:18:06;16.70;99.90
53520;DHT22;39397;53.204;5.778;2023-06-22T01:20:34;16.60;99.90
53520;DHT22;39397;53.204;5.778;2023-06-22T01:25:53;16.60;99.90
53520;DHT22;39397;53.204;5.778;2023-06-22T01:31:08;16.50;99.90
53520;DHT22;39397;53.204;5.778;2023-06-22T01:33:40;16.50;99.90
53520;DHT22;39397;53.204;5.778;2023-06-22T01:36:07;16.50;99.90
53520;DHT22;39397;53.204;5.778;2023-06-22T01:38:34;16.40;99.90
53520;DHT22;39397;53.204;5.778;2023-06-22T01:41:01;16.50;99.90
53520;DHT22;39397;53.204;5.778;2023-06-22T01:43:28;16.40;99.90
53520;DHT22;39397;53.204;5.778;2023-06-22T01:45:55;16.40;99.90
53520;DHT22;39397;53.204;5.778;2023-06-22T01:48:22;16.50;99.90
53520;DHT22;39397;53.204;5.778;2023-06-22T01:50:48;16.50;99.90
53520;DHT22;39397;53.204;5.778;2023-06-22T01:53:14;16.50;99.90
53520;DHT22;39397;53.204;5.778;2023-06-22T01:55:40;16.40;99.90
53520;DHT22;39397;53.204;5.778;2023-06-22T01:58:06;16.40;99.90
53520;DHT22;39397;53.204;5.778;2023-06-22T02:00:34;16.40;99.90
53520;DHT22;39397;53.204;5.778;2023-06-22T02:03:08;16.40;99.90
53520;DHT22;39397;53.204;5.778;2023-06-22T02:05:39;16.30;99.90
53520;DHT22;39397;53.204;5.778;2023-06-22T02:08:13;16.30;99.90
53520;DHT22;39397;53.204;5.778;2023-06-22T02:10:44;16.30;99.90
53520;DHT22;39397;53.204;5.778;2023-06-22T02:13:11;16.40;99.90
53520;DHT22;39397;53.204;5.778;2023-06-22T02:15:38;16.30;99.90
53520;DHT22;39397;53.204;5.778;2023-06-22T02:18:04;16.20;99.90
53520;DHT22;39397;53.204;5.778;2023-06-22T02:20:30;16.30;99.90
53520;DHT22;39397;53.204;5.778;2023-06-22T02:22:56;16.20;99.90
53520;DHT22;39397;53.204;5.778;2023-06-22T02:25:22;16.40;99.90
53520;DHT22;39397;53.204;5.778;2023-06-22T02:27:47;16.30;99.90
53520;DHT22;39397;53.204;5.778;2023-06-22T02:30:13;16.20;99.90
53520;DHT22;39397;53.204;5.778;2023-06-22T02:32:41;16.20;99.90
53520;DHT22;39397;53.204;5.778;2023-06-22T02:35:11;16.20;99.90
53520;DHT22;39397;53.204;5.778;2023-06-22T02:37:38;16.30;99.90
53520;DHT22;39397;53.204;5.778;2023-06-22T02:40:08;16.20;99.90
53520;DHT22;39397;53.204;5.778;2023-06-22T02:42:39;16.30;99.90
53520;DHT22;39397;53.204;5.778;2023-06-22T02:45:05;16.20;99.90
53520;DHT22;39397;53.204;5.778;2023-06-22T02:47:31;16.20;99.90
53520;DHT22;39397;53.204;5.778;2023-06-22T02:49:57;17.60;99.90
53520;DHT22;39397;53.204;5.778;2023-06-22T02:52:23;16.20;99.90
53520;DHT22;39397;53.204;5.778;2023-06-22T02:54:48;16.20;99.90
53520;DHT22;39397;53.204;5.778;2023-06-22T02:57:14;16.10;99.90
53520;DHT22;39397;53.204;5.778;2023-06-22T02:59:40;16.10;99.90
53520;DHT22;39397;53.204;5.778;2023-06-22T03:02:07;16.20;99.90
53520;DHT22;39397;53.204;5.778;2023-06-22T03:04:34;16.00;99.90
53520;DHT22;39397;53.204;5.778;2023-06-22T03:07:01;16.00;99.90
53520;DHT22;39397;53.204;5.778;2023-06-22T03:09:27;15.90;99.90
53520;DHT22;39397;53.204;5.778;2023-06-22T03:11:54;16.00;99.90
53520;DHT22;39397;53.204;5.778;2023-06-22T03:14:19;15.90;99.90
53520;DHT22;39397;53.204;5.778;2023-06-22T03:16:45;15.90;99.90
53520;DHT22;39397;53.204;5.778;2023-06-22T03:19:11;15.90;99.90
53520;DHT22;39397;53.204;5.778;2023-06-22T03:21:38;15.90;99.90
53520;DHT22;39397;53.204;5.778;2023-06-22T03:24:07;15.80;99.90
53520;DHT22;39397;53.204;5.778;2023-06-22T03:26:33;15.80;99.90
53520;DHT22;39397;53.204;5.778;2023-06-22T03:28:59;15.80;99.90
53520;DHT22;39397;53.204;5.778;2023-06-22T03:31:25;15.70;99.90
53520;DHT22;39397;53.204;5.778;2023-06-22T03:33:51;15.80;99.90
53520;DHT22;39397;53.204;5.778;2023-06-22T03:36:18;15.80;99.90
53520;DHT22;39397;53.204;5.778;2023-06-22T03:38:49;15.70;99.90
53520;DHT22;39397;53.204;5.778;2023-06-22T03:41:15;15.70;99.90
53520;DHT22;39397;53.204;5.778;2023-06-22T03:43:41;15.70;99.90
53520;DHT22;39397;53.204;5.778;2023-06-22T03:46:07;15.70;99.90
53520;DHT22;39397;53.204;5.778;2023-06-22T03:48:32;15.80;99.90
53520;DHT22;39397;53.204;5.778;2023-06-22T03:51:01;15.80;99.90
53520;DHT22;39397;53.204;5.778;2023-06-22T03:53:28;15.80;99.90
53520;DHT22;39397;53.204;5.778;2023-06-22T03:55:54;15.80;99.90
53520;DHT22;39397;53.204;5.778;2023-06-22T03:58:20;15.80;99.90
53520;DHT22;39397;53.204;5.778;2023-06-22T04:00:51;15.80;99.90
53520;DHT22;39397;53.204;5.778;2023-06-22T04:03:18;15.80;99.90
53520;DHT22;39397;53.204;5.778;2023-06-22T04:05:44;15.80;99.90
53520;DHT22;39397;53.204;5.778;2023-06-22T04:08:11;15.80;99.90
53520;DHT22;39397;53.204;5.778;2023-06-22T04:10:37;15.80;99.90
53520;DHT22;39397;53.204;5.778;2023-06-22T04:13:03;15.90;99.90
53520;DHT22;39397;53.204;5.778;2023-06-22T04:15:28;15.80;99.90
53520;DHT22;39397;53.204;5.778;2023-06-22T04:17:55;15.90;99.90
53520;DHT22;39397;53.204;5.778;2023-06-22T04:20:21;15.90;99.90
53520;DHT22;39397;53.204;5.778;2023-06-22T04:22:47;16.10;99.90
53520;DHT22;39397;53.204;5.778;2023-06-22T04:25:13;16.10;99.90
53520;DHT22;39397;53.204;5.778;2023-06-22T04:27:39;16.10;99.90
53520;DHT22;39397;53.204;5.778;2023-06-22T04:30:08;16.30;99.90
53520;DHT22;39397;53.204;5.778;2023-06-22T04:32:37;16.30;99.90
53520;DHT22;39397;53.204;5.778;2023-06-22T04:35:03;16.30;99.90
53520;DHT22;39397;53.204;5.778;2023-06-22T04:37:33;16.30;99.90
53520;DHT22;39397;53.204;5.778;2023-06-22T04:39:58;16.20;99.90
53520;DHT22;39397;53.204;5.778;2023-06-22T04:42:27;16.20;99.90
53520;DHT22;39397;53.204;5.778;2023-06-22T04:44:53;16.20;99.90
53520;DHT22;39397;53.204;5.778;2023-06-22T04:47:19;16.20;99.90
53520;DHT22;39397;53.204;5.778;2023-06-22T04:49:45;16.20;99.90
53520;DHT22;39397;53.204;5.778;2023-06-22T04:52:12;16.20;99.90
53520;DHT22;39397;53.204;5.778;2023-06-22T04:54:40;16.40;99.90
53520;DHT22;39397;53.204;5.778;2023-06-22T04:57:12;16.50;99.90
53520;DHT22;39397;53.204;5.778;2023-06-22T04:59:38;16.60;99.90
53520;DHT22;39397;53.204;5.778;2023-06-22T05:02:05;16.60;99.90
53520;DHT22;39397;53.204;5.778;2023-06-22T05:04:31;16.70;99.90
53520;DHT22;39397;53.204;5.778;2023-06-22T05:06:58;16.70;99.90
53520;DHT22;39397;53.204;5.778;2023-06-22T05:09:24;16.80;99.90
53520;DHT22;39397;53.204;5.778;2023-06-22T05:11:53;17.00;99.90
53520;DHT22;39397;53.204;5.778;2023-06-22T05:14:19;17.10;99.90
53520;DHT22;39397;53.204;5.778;2023-06-22T05:16:46;17.20;99.90
53520;DHT22;39397;53.204;5.778;2023-06-22T05:19:12;17.30;99.90
53520;DHT22;39397;53.204;5.778;2023-06-22T05:21:38;17.40;99.90
53520;DHT22;39397;53.204;5.778;2023-06-22T05:24:05;17.40;99.90
53520;DHT22;39397;53.204;5.778;2023-06-22T05:26:32;17.70;99.90
53520;DHT22;39397;53.204;5.778;2023-06-22T05:28:59;17.70;99.90
53520;DHT22;39397;53.204;5.778;2023-06-22T05:31:26;17.70;99.90
53520;DHT22;39397;53.204;5.778;2023-06-22T05:33:53;17.90;99.90
53520;DHT22;39397;53.204;5.778;2023-06-22T05:36:19;18.10;99.90
53520;DHT22;39397;53.204;5.778;2023-06-22T05:38:52;18.00;99.90
53520;DHT22;39397;53.204;5.778;2023-06-22T05:41:17;18.10;99.90
53520;DHT22;39397;53.204;5.778;2023-06-22T05:43:44;18.20;99.90
53520;DHT22;39397;53.204;5.778;2023-06-22T05:46:10;18.20;99.90
53520;DHT22;39397;53.204;5.778;2023-06-22T05:48:36;18.30;99.90
53520;DHT22;39397;53.204;5.778;2023-06-22T05:51:01;18.40;99.90
53520;DHT22;39397;53.204;5.778;2023-06-22T05:53:27;18.40;99.90
53520;DHT22;39397;53.204;5.778;2023-06-22T05:55:53;18.40;99.90
53520;DHT22;39397;53.204;5.778;2023-06-22T05:58:19;18.50;99.90
53520;DHT22;39397;53.204;5.778;2023-06-22T06:00:44;18.60;99.90
53520;DHT22;39397;53.204;5.778;2023-06-22T06:03:11;18.90;99.90
53520;DHT22;39397;53.204;5.778;2023-06-22T06:05:37;18.70;99.90
53520;DHT22;39397;53.204;5.778;2023-06-22T06:08:05;19.00;99.90
53520;DHT22;39397;53.204;5.778;2023-06-22T06:10:31;19.00;99.90
53520;DHT22;39397;53.204;5.778;2023-06-22T06:12:58;19.10;99.90
53520;DHT22;39397;53.204;5.778;2023-06-22T06:15:24;19.20;99.90
53520;DHT22;39397;53.204;5.778;2023-06-22T06:17:52;19.30;99.90
53520;DHT22;39397;53.204;5.778;2023-06-22T06:20:20;19.50;99.90
53520;DHT22;39397;53.204;5.778;2023-06-22T06:22:47;19.60;99.90
53520;DHT22;39397;53.204;5.778;2023-06-22T06:25:13;19.70;99.90
53520;DHT22;39397;53.204;5.778;2023-06-22T06:27:46;19.70;99.90
53520;DHT22;39397;53.204;5.778;2023-06-22T06:30:12;19.70;99.90
53520;DHT22;39397;53.204;5.778;2023-06-22T06:32:39;19.80;99.90
53520;DHT22;39397;53.204;5.778;2023-06-22T06:35:09;19.80;99.90
53520;DHT22;39397;53.204;5.778;2023-06-22T06:37:43;19.90;99.90
53520;DHT22;39397;53.204;5.778;2023-06-22T06:40:09;20.00;99.90
53520;DHT22;39397;53.204;5.778;2023-06-22T06:42:40;20.00;99.90
53520;DHT22;39397;53.204;5.778;2023-06-22T06:45:16;19.90;99.90
53520;DHT22;39397;53.204;5.778;2023-06-22T06:47:42;20.10;99.90
53520;DHT22;39397;53.204;5.778;2023-06-22T06:50:08;20.30;99.90
53520;DHT22;39397;53.204;5.778;2023-06-22T06:52:34;20.30;99.90
53520;DHT22;39397;53.204;5.778;2023-06-22T06:55:00;20.40;99.90
53520;DHT22;39397;53.204;5.778;2023-06-22T06:57:25;20.60;99.90
53520;DHT22;39397;53.204;5.778;2023-06-22T06:59:57;20.70;99.90
53520;DHT22;39397;53.204;5.778;2023-06-22T07:02:26;20.80;99.90
53520;DHT22;39397;53.204;5.778;2023-06-22T07:04:53;21.00;99.90
53520;DHT22;39397;53.204;5.778;2023-06-22T07:07:22;21.00;99.90
53520;DHT22;39397;53.204;5.778;2023-06-22T07:09:48;21.00;99.90
53520;DHT22;39397;53.204;5.778;2023-06-22T07:12:14;21.10;99.90
53520;DHT22;39397;53.204;5.778;2023-06-22T07:14:39;21.20;99.90
53520;DHT22;39397;53.204;5.778;2023-06-22T07:17:05;21.30;99.90
53520;DHT22;39397;53.204;5.778;2023-06-22T07:19:33;21.30;99.90
53520;DHT22;39397;53.204;5.778;2023-06-22T07:21:58;21.50;99.90
53520;DHT22;39397;53.204;5.778;2023-06-22T07:24:24;21.50;99.90
53520;DHT22;39397;53.204;5.778;2023-06-22T07:26:50;21.60;99.90
53520;DHT22;39397;53.204;5.778;2023-06-22T07:29:17;21.60;99.90
53520;DHT22;39397;53.204;5.778;2023-06-22T07:31:43;21.70;99.90
53520;DHT22;39397;53.204;5.778;2023-06-22T07:34:09;21.80;99.90
53520;DHT22;39397;53.204;5.778;2023-06-22T07:36:34;21.80;99.90
53520;DHT22;39397;53.204;5.778;2023-06-22T07:39:02;22.00;99.90
53520;DHT22;39397;53.204;5.778;2023-06-22T07:41:28;22.00;99.90
53520;DHT22;39397;53.204;5.778;2023-06-22T07:43:54;22.00;99.90
53520;DHT22;39397;53.204;5.778;2023-06-22T07:46:20;22.20;99.90
53520;DHT22;39397;53.204;5.778;2023-06-22T07:48:46;22.30;99.90
53520;DHT22;39397;53.204;5.778;2023-06-22T07:51:11;22.30;99.90
53520;DHT22;39397;53.204;5.778;2023-06-22T07:53:41;22.50;99.90
53520;DHT22;39397;53.204;5.778;2023-06-22T07:56:09;22.60;99.90
53520;DHT22;39397;53.204;5.778;2023-06-22T07:58:35;22.60;99.90
53520;DHT22;39397;53.204;5.778;2023-06-22T08:01:01;22.70;99.90
53520;DHT22;39397;53.204;5.778;2023-06-22T08:03:27;22.80;99.90
53520;DHT22;39397;53.204;5.778;2023-06-22T08:05:53;22.90;99.90
53520;DHT22;39397;53.204;5.778;2023-06-22T08:08:19;22.90;99.90
53520;DHT22;39397;53.204;5.778;2023-06-22T08:10:44;22.90;99.90
53520;DHT22;39397;53.204;5.778;2023-06-22T08:13:10;23.10;99.90
53520;DHT22;39397;53.204;5.778;2023-06-22T08:15:36;23.10;99.90
53520;DHT22;39397;53.204;5.778;2023-06-22T08:18:02;23.20;99.90
53520;DHT22;39397;53.204;5.778;2023-06-22T08:20:28;23.50;99.90
53520;DHT22;39397;53.204;5.778;2023-06-22T08:22:55;23.50;99.90
53520;DHT22;39397;53.204;5.778;2023-06-22T08:25:21;23.60;99.90
53520;DHT22;39397;53.204;5.778;2023-06-22T08:27:47;23.60;99.90
53520;DHT22;39397;53.204;5.778;2023-06-22T08:30:14;23.70;99.90
53520;DHT22;39397;53.204;5.778;2023-06-22T08:32:40;23.80;99.90
53520;DHT22;39397;53.204;5.778;2023-06-22T08:35:06;24.00;99.90
53520;DHT22;39397;53.204;5.778;2023-06-22T08:37:33;24.00;99.90
53520;DHT22;39397;53.204;5.778;2023-06-22T08:40:01;24.30;99.90
53520;DHT22;39397;53.204;5.778;2023-06-22T08:42:27;24.40;99.90
53520;DHT22;39397;53.204;5.778;2023-06-22T08:44:53;24.50;99.90
53520;DHT22;39397;53.204;5.778;2023-06-22T08:47:19;24.50;99.90
53520;DHT22;39397;53.204;5.778;2023-06-22T08:49:46;24.70;99.90
53520;DHT22;39397;53.204;5.778;2023-06-22T08:52:12;24.80;99.90
53520;DHT22;39397;53.204;5.778;2023-06-22T08:54:38;24.80;99.90
53520;DHT22;39397;53.204;5.778;2023-06-22T08:57:04;25.00;99.90
53520;DHT22;39397;53.204;5.778;2023-06-22T08:59:30;25.10;99.90
53520;DHT22;39397;53.204;5.778;2023-06-22T09:01:55;25.10;99.90
53520;DHT22;39397;53.204;5.778;2023-06-22T09:04:22;25.20;99.90
53520;DHT22;39397;53.204;5.778;2023-06-22T09:06:48;25.30;99.90
53520;DHT22;39397;53.204;5.778;2023-06-22T09:09:16;25.30;99.90
53520;DHT22;39397;53.204;5.778;2023-06-22T09:11:42;25.50;99.90
53520;DHT22;39397;53.204;5.778;2023-06-22T09:14:08;25.30;99.90
53520;DHT22;39397;53.204;5.778;2023-06-22T09:16:34;25.60;99.90
53520;DHT22;39397;53.204;5.778;2023-06-22T09:19:00;25.60;99.90
53520;DHT22;39397;53.204;5.778;2023-06-22T09:21:26;25.70;99.90
53520;DHT22;39397;53.204;5.778;2023-06-22T09:23:52;25.80;99.90
53520;DHT22;39397;53.204;5.778;2023-06-22T09:26:18;25.80;99.90
53520;DHT22;39397;53.204;5.778;2023-06-22T09:28:44;25.80;99.90
53520;DHT22;39397;53.204;5.778;2023-06-22T09:31:10;25.90;99.70
53520;DHT22;39397;53.204;5.778;2023-06-22T09:33:36;26.00;99.40
53520;DHT22;39397;53.204;5.778;2023-06-22T09:36:04;26.00;98.80
53520;DHT22;39397;53.204;5.778;2023-06-22T09:38:36;26.00;98.10
53520;DHT22;39397;53.204;5.778;2023-06-22T09:41:02;25.00;96.60
53520;DHT22;39397;53.204;5.778;2023-06-22T09:43:27;26.00;96.80
53520;DHT22;39397;53.204;5.778;2023-06-22T09:45:53;25.10;96.20
53520;DHT22;39397;53.204;5.778;2023-06-22T09:48:19;26.00;96.00
53520;DHT22;39397;53.204;5.778;2023-06-22T09:50:45;26.00;96.30
53520;DHT22;39397;53.204;5.778;2023-06-22T09:53:10;25.90;96.40
53520;DHT22;39397;53.204;5.778;2023-06-22T09:55:36;26.30;96.20
53520;DHT22;39397;53.204;5.778;2023-06-22T09:58:02;26.40;95.70
53520;DHT22;39397;53.204;5.778;2023-06-22T10:00:27;26.30;95.40
53520;DHT22;39397;53.204;5.778;2023-06-22T10:02:53;26.40;95.50
53520;DHT22;39397;53.204;5.778;2023-06-22T10:05:19;26.40;95.00
53520;DHT22;39397;53.204;5.778;2023-06-22T10:07:45;26.60;95.00
53520;DHT22;39397;53.204;5.778;2023-06-22T10:10:11;26.50;94.50
53520;DHT22;39397;53.204;5.778;2023-06-22T10:12:42;26.80;94.40
53520;DHT22;39397;53.204;5.778;2023-06-22T10:15:09;26.70;94.30
53520;DHT22;39397;53.204;5.778;2023-06-22T10:17:34;26.70;93.90
53520;DHT22;39397;53.204;5.778;2023-06-22T10:20:00;26.80;93.60
53520;DHT22;39397;53.204;5.778;2023-06-22T10:22:31;26.90;93.80
53520;DHT22;39397;53.204;5.778;2023-06-22T10:24:57;27.10;93.30
53520;DHT22;39397;53.204;5.778;2023-06-22T10:27:22;27.10;92.60
53520;DHT22;39397;53.204;5.778;2023-06-22T10:29:48;27.20;92.70
53520;DHT22;39397;53.204;5.778;2023-06-22T10:32:14;27.20;92.90
53520;DHT22;39397;53.204;5.778;2023-06-22T10:34:39;27.20;92.70
53520;DHT22;39397;53.204;5.778;2023-06-22T10:37:05;27.30;92.20
53520;DHT22;39397;53.204;5.778;2023-06-22T10:39:31;27.30;92.00
53520;DHT22;39397;53.204;5.778;2023-06-22T10:41:57;27.40;91.50
53520;DHT22;39397;53.204;5.778;2023-06-22T10:44:22;27.30;91.20
53520;DHT22;39397;53.204;5.778;2023-06-22T10:46:48;27.30;90.90
53520;DHT22;39397;53.204;5.778;2023-06-22T10:49:14;27.30;91.30
53520;DHT22;39397;53.204;5.778;2023-06-22T10:51:39;27.30;91.20
53520;DHT22;39397;53.204;5.778;2023-06-22T10:54:05;27.50;91.20
53520;DHT22;39397;53.204;5.778;2023-06-22T10:56:31;27.40;91.00
53520;DHT22;39397;53.204;5.778;2023-06-22T10:58:58;27.40;91.10
53520;DHT22;39397;53.204;5.778;2023-06-22T11:01:24;27.30;90.60
53520;DHT22;39397;53.204;5.778;2023-06-22T11:03:50;27.20;90.80
53520;DHT22;39397;53.204;5.778;2023-06-22T11:06:15;27.10;91.10
53520;DHT22;39397;53.204;5.778;2023-06-22T11:08:44;27.00;91.30
53520;DHT22;39397;53.204;5.778;2023-06-22T11:11:10;26.90;91.40
53520;DHT22;39397;53.204;5.778;2023-06-22T11:13:36;26.80;91.50
53520;DHT22;39397;53.204;5.778;2023-06-22T11:16:02;27.00;91.60
53520;DHT22;39397;53.204;5.778;2023-06-22T11:18:27;27.10;91.70
53520;DHT22;39397;53.204;5.778;2023-06-22T11:20:53;27.10;91.60
53520;DHT22;39397;53.204;5.778;2023-06-22T11:23:19;27.20;91.40
53520;DHT22;39397;53.204;5.778;2023-06-22T11:25:45;27.10;91.50
53520;DHT22;39397;53.204;5.778;2023-06-22T11:28:11;26.80;91.80
53520;DHT22;39397;53.204;5.778;2023-06-22T11:30:37;26.90;92.20
53520;DHT22;39397;53.204;5.778;2023-06-22T11:33:03;26.90;92.00
53520;DHT22;39397;53.204;5.778;2023-06-22T11:35:28;26.80;92.00
53520;DHT22;39397;53.204;5.778;2023-06-22T11:37:54;26.70;92.30
53520;DHT22;39397;53.204;5.778;2023-06-22T11:40:21;26.80;92.40
53520;DHT22;39397;53.204;5.778;2023-06-22T11:42:48;26.90;92.10
53520;DHT22;39397;53.204;5.778;2023-06-22T11:45:14;27.00;91.90
53520;DHT22;39397;53.204;5.778;2023-06-22T11:47:39;27.00;92.00
53520;DHT22;39397;53.204;5.778;2023-06-22T11:50:06;27.10;92.00
53520;DHT22;39397;53.204;5.778;2023-06-22T11:52:33;27.30;91.70
53520;DHT22;39397;53.204;5.778;2023-06-22T11:54:59;27.30;91.10
53520;DHT22;39397;53.204;5.778;2023-06-22T11:57:25;27.50;91.20
53520;DHT22;39397;53.204;5.778;2023-06-22T11:59:50;27.60;90.50
53520;DHT22;39397;53.204;5.778;2023-06-22T12:02:16;27.60;90.20
53520;DHT22;39397;53.204;5.778;2023-06-22T12:04:42;27.60;90.00
53520;DHT22;39397;53.204;5.778;2023-06-22T12:07:07;27.60;90.10
53520;DHT22;39397;53.204;5.778;2023-06-22T12:09:33;27.70;90.10
53520;DHT22;39397;53.204;5.778;2023-06-22T12:11:59;27.90;89.00
53520;DHT22;39397;53.204;5.778;2023-06-22T12:14:24;27.80;88.20
53520;DHT22;39397;53.204;5.778;2023-06-22T12:16:50;27.60;88.00
53520;DHT22;39397;53.204;5.778;2023-06-22T12:19:16;27.50;88.40
53520;DHT22;39397;53.204;5.778;2023-06-22T12:21:41;27.50;89.00
53520;DHT22;39397;53.204;5.778;2023-06-22T12:24:11;27.50;88.90
53520;DHT22;39397;53.204;5.778;2023-06-22T12:26:36;27.60;88.10
53520;DHT22;39397;53.204;5.778;2023-06-22T12:29:02;27.60;86.50
53520;DHT22;39397;53.204;5.778;2023-06-22T12:31:28;27.60;86.30
53520;DHT22;39397;53.204;5.778;2023-06-22T12:33:53;27.40;86.60
53520;DHT22;39397;53.204;5.778;2023-06-22T12:36:19;27.30;85.90
53520;DHT22;39397;53.204;5.778;2023-06-22T12:38:45;27.20;85.50
53520;DHT22;39397;53.204;5.778;2023-06-22T12:41:10;27.10;85.30
53520;DHT22;39397;53.204;5.778;2023-06-22T12:43:36;26.80;84.90
53520;DHT22;39397;53.204;5.778;2023-06-22T12:46:02;26.80;85.30
53520;DHT22;39397;53.204;5.778;2023-06-22T12:48:27;26.90;85.00
53520;DHT22;39397;53.204;5.778;2023-06-22T12:50:53;26.90;84.00
53520;DHT22;39397;53.204;5.778;2023-06-22T12:53:19;26.80;84.30
53520;DHT22;39397;53.204;5.778;2023-06-22T12:55:44;26.90;84.70
53520;DHT22;39397;53.204;5.778;2023-06-22T12:58:10;26.80;83.80
53520;DHT22;39397;53.204;5.778;2023-06-22T13:00:37;26.70;84.50
53520;DHT22;39397;53.204;5.778;2023-06-22T13:03:03;26.70;84.80
53520;DHT22;39397;53.204;5.778;2023-06-22T13:05:29;26.80;84.70
53520;DHT22;39397;53.204;5.778;2023-06-22T13:07:56;26.70;83.50
53520;DHT22;39397;53.204;5.778;2023-06-22T13:10:21;26.70;83.50
53520;DHT22;39397;53.204;5.778;2023-06-22T13:12:47;26.90;83.90
53520;DHT22;39397;53.204;5.778;2023-06-22T13:15:13;26.70;83.50
53520;DHT22;39397;53.204;5.778;2023-06-22T13:17:38;26.60;83.30
53520;DHT22;39397;53.204;5.778;2023-06-22T13:20:05;26.70;82.40
53520;DHT22;39397;53.204;5.778;2023-06-22T13:22:32;26.50;82.80
53520;DHT22;39397;53.204;5.778;2023-06-22T13:25:00;26.60;83.50
53520;DHT22;39397;53.204;5.778;2023-06-22T13:27:25;26.60;83.50
53520;DHT22;39397;53.204;5.778;2023-06-22T13:29:53;26.50;83.20
53520;DHT22;39397;53.204;5.778;2023-06-22T13:32:18;26.40;82.70
53520;DHT22;39397;53.204;5.778;2023-06-22T13:34:44;26.30;82.00
53520;DHT22;39397;53.204;5.778;2023-06-22T13:37:10;26.40;81.40
53520;DHT22;39397;53.204;5.778;2023-06-22T13:39:35;26.10;81.30
53520;DHT22;39397;53.204;5.778;2023-06-22T13:42:01;26.00;81.50
53520;DHT22;39397;53.204;5.778;2023-06-22T13:44:27;25.90;81.60
53520;DHT22;39397;53.204;5.778;2023-06-22T13:46:57;25.90;81.10
53520;DHT22;39397;53.204;5.778;2023-06-22T13:49:23;25.60;80.80
53520;DHT22;39397;53.204;5.778;2023-06-22T13:51:49;25.60;81.10
53520;DHT22;39397;53.204;5.778;2023-06-22T13:54:15;25.50;81.60
53520;DHT22;39397;53.204;5.778;2023-06-22T13:56:40;25.50;81.80
53520;DHT22;39397;53.204;5.778;2023-06-22T13:59:06;25.40;82.00
53520;DHT22;39397;53.204;5.778;2023-06-22T14:01:36;25.40;81.20
53520;DHT22;39397;53.204;5.778;2023-06-22T14:04:02;25.10;83.30
53520;DHT22;39397;53.204;5.778;2023-06-22T14:06:28;25.10;83.10
53520;DHT22;39397;53.204;5.778;2023-06-22T14:08:53;25.00;82.50
53520;DHT22;39397;53.204;5.778;2023-06-22T14:11:19;24.90;82.30
53520;DHT22;39397;53.204;5.778;2023-06-22T14:13:45;24.80;81.90
53520;DHT22;39397;53.204;5.778;2023-06-22T14:16:11;24.70;81.80
53520;DHT22;39397;53.204;5.778;2023-06-22T14:18:36;24.60;82.20
53520;DHT22;39397;53.204;5.778;2023-06-22T14:21:02;24.60;82.20
53520;DHT22;39397;53.204;5.778;2023-06-22T14:23:28;24.40;82.40
53520;DHT22;39397;53.204;5.778;2023-06-22T14:25:54;24.40;83.40
53520;DHT22;39397;53.204;5.778;2023-06-22T14:28:19;24.20;83.30
53520;DHT22;39397;53.204;5.778;2023-06-22T14:30:45;24.20;83.20
53520;DHT22;39397;53.204;5.778;2023-06-22T14:33:12;24.10;83.60
53520;DHT22;39397;53.204;5.778;2023-06-22T14:35:38;24.10;84.30
53520;DHT22;39397;53.204;5.778;2023-06-22T14:38:03;24.00;84.50
53520;DHT22;39397;53.204;5.778;2023-06-22T14:40:29;24.10;84.90
53520;DHT22;39397;53.204;5.778;2023-06-22T14:42:55;23.90;85.20
53520;DHT22;39397;53.204;5.778;2023-06-22T14:45:22;23.80;85.30
53520;DHT22;39397;53.204;5.778;2023-06-22T14:47:48;23.80;85.50
53520;DHT22;39397;53.204;5.778;2023-06-22T14:50:14;23.80;85.90
53520;DHT22;39397;53.204;5.778;2023-06-22T14:52:40;23.70;86.40
53520;DHT22;39397;53.204;5.778;2023-06-22T14:55:06;23.50;86.70
53520;DHT22;39397;53.204;5.778;2023-06-22T14:57:31;23.60;86.40
53520;DHT22;39397;53.204;5.778;2023-06-22T14:59:57;23.50;86.70
53520;DHT22;39397;53.204;5.778;2023-06-22T15:02:23;23.40;87.30
53520;DHT22;39397;53.204;5.778;2023-06-22T15:04:49;23.40;88.00
53520;DHT22;39397;53.204;5.778;2023-06-22T15:07:15;23.40;88.60
53520;DHT22;39397;53.204;5.778;2023-06-22T15:09:40;23.40;88.30
53520;DHT22;39397;53.204;5.778;2023-06-22T15:12:08;23.60;88.60
53520;DHT22;39397;53.204;5.778;2023-06-22T15:14:40;23.60;88.20
53520;DHT22;39397;53.204;5.778;2023-06-22T15:17:07;23.60;88.40
53520;DHT22;39397;53.204;5.778;2023-06-22T15:19:36;23.70;88.80
53520;DHT22;39397;53.204;5.778;2023-06-22T15:22:04;23.60;89.30
53520;DHT22;39397;53.204;5.778;2023-06-22T15:24:31;23.70;89.00
53520;DHT22;39397;53.204;5.778;2023-06-22T15:26:57;23.70;89.20
53520;DHT22;39397;53.204;5.778;2023-06-22T15:29:22;23.80;89.10
53520;DHT22;39397;53.204;5.778;2023-06-22T15:31:48;23.90;89.30
53520;DHT22;39397;53.204;5.778;2023-06-22T15:34:14;23.80;89.20